Time;durP1;ratioP1;P1;durP2;ratioP2;P2;SDS_P1;SDS_P2;PMS_P1;PMS_P2;Temp;Humidity;BMP_temperature;BMP_pressure;BME280_temperature;BME280_humidity;BME280_pressure;Samples;Min_cycle;Max_cycle;Signal;HPM_P1;HPM_P2
2022/04/22 00:01:40;;;;;;;12.90;11.63;;;;;;;11.22;69.53;94750.47;4949997;28;20221;-69
2022/04/22 00:04:05;;;;;;;12.00;10.90;;;;;;;11.18;69.07;94753.63;4954019;28;20229;-69
2022/04/22 00:06:31;;;;;;;13.80;11.17;;;;;;;11.14;69.85;94747.84;4953987;28;20223;-69
2022/04/22 00:08:56;;;;;;;12.47;11.20;;;;;;;11.03;71.22;94767.38;4947768;28;20213;-69
2022/04/22 00:11:31;;;;;;;12.33;11.13;;;;;;;11.08;71.88;94768.72;4951422;28;20227;-70
2022/04/22 00:13:58;;;;;;;11.80;10.70;;;;;;;11.16;70.82;94766.13;4950687;28;20251;-69
2022/04/22 00:16:29;;;;;;;11.30;10.23;;;;;;;11.13;69.44;94750.66;4965590;28;20221;-70
2022/04/22 00:18:55;;;;;;;11.47;10.40;;;;;;;11.04;69.81;94740.09;4961796;28;20222;-71
2022/04/22 00:21:21;;;;;;;12.63;11.33;;;;;;;11.03;70.05;94741.06;4958988;28;20268;-69
2022/04/22 00:23:47;;;;;;;11.88;10.68;;;;;;;11.11;69.75;94726.31;4964821;28;20217;-69
2022/04/22 00:26:13;;;;;;;11.53;10.43;;;;;;;11.04;69.41;94723.50;4957491;28;20224;-70
2022/04/22 00:28:38;;;;;;;12.10;10.20;;;;;;;11.10;68.42;94714.94;4961910;28;20224;-65
2022/04/22 00:31:04;;;;;;;11.70;10.57;;;;;;;11.06;68.40;94711.00;4951526;28;20233;-70
2022/04/22 00:33:29;;;;;;;12.30;11.10;;;;;;;11.03;69.71;94712.13;4950778;28;20212;-70
2022/04/22 00:35:55;;;;;;;12.37;11.00;;;;;;;11.02;70.10;94713.13;4937365;28;20232;-70
2022/04/22 00:38:21;;;;;;;10.77;9.80;;;;;;;10.98;70.08;94724.94;4952653;28;20227;-69
2022/04/22 00:40:46;;;;;;;12.83;11.40;;;;;;;10.94;70.48;94728.91;4954140;28;20237;-69
2022/04/22 00:43:21;;;;;;;11.40;10.30;;;;;;;10.78;71.21;94728.84;4940389;28;20259;-69
2022/04/22 00:45:47;;;;;;;12.40;11.20;;;;;;;10.83;71.09;94731.84;4958991;28;20228;-69
2022/04/22 00:48:15;;;;;;;12.43;10.67;;;;;;;10.85;71.09;94729.84;4946707;28;20205;-69
2022/04/22 00:50:41;;;;;;;13.13;11.83;;;;;;;10.80;71.42;94727.72;4982886;28;20294;-68
2022/04/22 00:53:08;;;;;;;12.40;11.10;;;;;;;10.85;71.23;94726.41;4970356;28;20235;-69
2022/04/22 00:55:38;;;;;;;14.33;11.43;;;;;;;10.87;69.92;94714.72;4974274;28;20228;-70
2022/04/22 00:58:05;;;;;;;14.73;11.70;;;;;;;10.86;69.73;94701.75;4970152;28;20242;-69
2022/04/22 01:00:31;;;;;;;12.67;11.47;;;;;;;10.85;71.01;94689.56;4961576;28;20262;-71
2022/04/22 01:02:57;;;;;;;13.37;12.13;;;;;;;10.81;71.35;94697.78;4963277;28;20270;-69
2022/04/22 01:10:53;;;;;;;12.77;11.63;;;;;;;10.75;70.25;94684.47;4964302;28;20236;-71
2022/04/22 01:13:19;;;;;;;12.70;11.57;;;;;;;10.78;70.67;94694.66;4958923;28;20229;-69
2022/04/22 01:15:46;;;;;;;12.73;11.43;;;;;;;10.82;70.90;94682.81;4963167;28;20338;-69
2022/04/22 01:18:13;;;;;;;12.33;11.13;;;;;;;10.71;70.38;94677.88;4946513;28;20236;-69
2022/04/22 01:20:38;;;;;;;12.43;11.33;;;;;;;10.65;70.79;94660.94;4959070;28;20235;-69
2022/04/22 01:23:04;;;;;;;12.97;11.73;;;;;;;10.67;70.92;94663.44;4956223;28;20224;-70
2022/04/22 01:25:29;;;;;;;12.47;11.27;;;;;;;10.71;70.25;94651.59;4951648;28;20232;-70
2022/04/22 01:27:55;;;;;;;11.67;10.50;;;;;;;10.72;70.31;94637.44;4951450;28;20334;-69
2022/04/22 01:30:22;;;;;;;12.23;10.93;;;;;;;10.70;70.57;94615.75;4942541;28;20311;-68
2022/04/22 01:32:53;;;;;;;13.13;11.57;;;;;;;10.74;70.46;94614.44;4949886;28;20213;-68
2022/04/22 01:35:19;;;;;;;11.63;9.83;;;;;;;10.66;69.56;94603.91;4949395;28;20290;-69
2022/04/22 01:37:45;;;;;;;9.83;8.93;;;;;;;10.73;69.02;94591.78;4961953;28;20237;-68
2022/04/22 01:40:12;;;;;;;9.73;8.50;;;;;;;10.75;68.40;94602.94;4947090;28;20236;-68
2022/04/22 01:42:38;;;;;;;9.10;8.20;;;;;;;10.82;68.17;94594.25;4950884;28;20241;-68
2022/04/22 01:45:05;;;;;;;10.10;7.60;;;;;;;10.77;68.61;94608.84;4957228;28;20205;-68
2022/04/22 01:47:30;;;;;;;8.83;7.63;;;;;;;10.74;68.45;94606.56;4952058;28;20264;-68
2022/04/22 01:49:56;;;;;;;8.53;6.80;;;;;;;10.76;68.37;94600.16;4949322;28;20252;-69
2022/04/22 01:52:22;;;;;;;6.97;6.30;;;;;;;10.67;67.74;94613.47;4955530;28;20225;-68
2022/04/22 01:54:51;;;;;;;8.00;6.07;;;;;;;10.70;67.44;94627.09;4949995;28;20333;-68
2022/04/22 01:57:16;;;;;;;6.20;5.60;;;;;;;10.75;67.77;94624.81;4947760;28;20221;-69
2022/04/22 01:59:44;;;;;;;6.90;5.30;;;;;;;10.73;67.56;94624.13;4951208;28;20209;-68
2022/04/22 02:02:10;;;;;;;7.97;5.93;;;;;;;10.77;67.57;94624.63;4951330;28;20229;-69
2022/04/22 02:04:36;;;;;;;7.07;5.57;;;;;;;10.72;67.59;94634.81;4963439;28;20311;-67
2022/04/22 02:07:01;;;;;;;8.13;6.10;;;;;;;10.65;67.94;94649.59;4951658;28;20388;-70
2022/04/22 02:09:27;;;;;;;8.57;6.93;;;;;;;10.62;68.01;94666.53;4952848;28;20227;-68
2022/04/22 02:11:53;;;;;;;8.17;7.27;;;;;;;10.56;68.36;94678.50;4969059;28;20210;-68
2022/04/22 02:14:19;;;;;;;7.53;6.80;;;;;;;10.52;68.30;94679.78;4950255;28;20229;-69
2022/04/22 02:16:44;;;;;;;8.00;6.80;;;;;;;10.49;68.91;94681.94;4954681;28;20255;-68
2022/04/22 02:19:10;;;;;;;8.03;7.17;;;;;;;10.43;69.74;94679.94;4958102;28;20225;-68
2022/04/22 02:21:35;;;;;;;8.63;7.70;;;;;;;10.47;69.46;94686.53;4966162;28;20226;-63
2022/04/22 02:24:01;;;;;;;9.70;8.80;;;;;;;10.49;69.66;94688.00;4974337;28;20203;-69
2022/04/22 02:26:26;;;;;;;8.97;8.13;;;;;;;10.47;70.02;94689.16;4973174;28;20238;-68
2022/04/22 02:28:52;;;;;;;11.20;9.60;;;;;;;10.41;70.04;94680.09;4970207;28;20249;-68
2022/04/22 02:31:18;;;;;;;10.50;9.43;;;;;;;10.47;69.96;94666.31;4980056;28;20252;-68
2022/04/22 02:33:43;;;;;;;10.67;9.67;;;;;;;10.46;69.64;94656.78;4973715;28;20339;-68
2022/04/22 02:36:10;;;;;;;10.63;9.63;;;;;;;10.42;70.87;94649.38;4960530;28;20204;-68
2022/04/22 02:38:36;;;;;;;11.13;10.00;;;;;;;10.20;71.77;94650.75;4983314;28;20224;-66
2022/04/22 02:46:31;;;;;;;10.77;9.68;;;;;;;10.26;71.14;94645.66;4965922;28;20248;-69
2022/04/22 02:49:00;;;;;;;11.90;10.60;;;;;;;10.23;70.82;94632.84;4971895;28;20232;-68
2022/04/22 02:51:27;;;;;;;11.10;10.00;;;;;;;10.19;70.67;94651.75;4962647;28;20209;-68
2022/04/22 02:53:53;;;;;;;10.43;9.50;;;;;;;10.27;70.51;94646.50;4973916;28;20326;-68
2022/04/22 02:56:21;;;;;;;11.47;10.27;;;;;;;10.31;70.49;94643.41;4975247;28;20227;-69
2022/04/22 02:58:47;;;;;;;11.13;10.03;;;;;;;10.33;70.50;94646.72;4981530;28;20232;-68
2022/04/22 03:01:15;;;;;;;13.03;9.73;;;;;;;10.38;69.98;94633.09;4971463;28;20231;-68
2022/04/22 03:03:45;;;;;;;11.07;9.93;;;;;;;10.37;69.65;94649.84;4963018;28;20228;-68
2022/04/22 03:06:10;;;;;;;10.60;9.60;;;;;;;10.31;70.37;94632.09;4944091;28;20256;-69
2022/04/22 03:08:36;;;;;;;10.43;9.33;;;;;;;10.29;70.03;94639.31;4941975;28;20229;-68
2022/04/22 03:11:02;;;;;;;10.93;9.83;;;;;;;10.23;70.47;94629.41;4947775;28;20260;-69
2022/04/22 03:13:27;;;;;;;11.43;10.30;;;;;;;10.17;70.72;94641.38;4947558;28;20232;-70
2022/04/22 03:15:54;;;;;;;11.13;10.20;;;;;;;10.26;70.53;94642.22;4958256;28;20223;-70
2022/04/22 03:18:20;;;;;;;10.20;9.23;;;;;;;10.23;70.47;94640.72;4970134;28;20208;-69
2022/04/22 03:20:45;;;;;;;10.20;9.20;;;;;;;10.18;70.24;94652.69;4979361;28;20224;-68
2022/04/22 03:23:11;;;;;;;10.90;9.70;;;;;;;10.29;69.41;94655.91;4962454;28;20233;-68
2022/04/22 03:25:36;;;;;;;10.00;9.00;;;;;;;10.28;69.25;94663.94;4963316;28;20678;-67
2022/04/22 03:28:05;;;;;;;9.97;8.97;;;;;;;10.23;68.84;94659.13;4972843;28;20229;-68
2022/04/22 03:30:34;;;;;;;10.70;9.70;;;;;;;10.14;69.52;94668.78;4984263;28;20335;-70
2022/04/22 03:33:01;;;;;;;10.13;9.23;;;;;;;10.22;69.93;94665.38;4970508;28;20474;-68
2022/04/22 03:35:26;;;;;;;9.73;8.70;;;;;;;10.12;69.92;94665.47;4975827;28;20224;-68
2022/04/22 03:37:52;;;;;;;10.37;8.47;;;;;;;10.11;69.15;94658.59;4972760;28;20239;-68
2022/04/22 03:40:17;;;;;;;8.83;7.93;;;;;;;10.17;69.20;94657.13;4973916;28;20216;-69
2022/04/22 03:42:43;;;;;;;11.13;8.03;;;;;;;10.22;68.81;94661.94;4970270;28;20228;-68
2022/04/22 03:45:08;;;;;;;8.80;7.90;;;;;;;10.31;69.22;94674.13;4946685;28;20212;-68
2022/04/22 03:47:34;;;;;;;8.47;7.57;;;;;;;10.32;67.74;94673.16;4974487;28;20236;-68
2022/04/22 03:49:59;;;;;;;8.87;7.97;;;;;;;10.35;68.23;94678.94;4978131;28;20289;-70
2022/04/22 03:52:25;;;;;;;9.47;8.53;;;;;;;10.40;67.55;94691.59;4972892;28;20319;-69
2022/04/22 03:54:50;;;;;;;9.30;7.93;;;;;;;10.39;67.17;94682.06;4965953;28;20275;-68
2022/04/22 04:00:00;;;;;;;9.80;8.80;;;;;;;10.32;68.53;94689.75;4965229;28;20242;-60
2022/04/22 04:02:25;;;;;;;9.13;8.33;;;;;;;10.24;68.43;94673.13;4979788;28;20240;-60
2022/04/22 04:04:51;;;;;;;10.80;9.70;;;;;;;10.31;68.38;94671.50;4972544;28;20225;-56
2022/04/22 04:07:17;;;;;;;10.97;9.97;;;;;;;10.35;68.26;94668.41;4966616;28;20228;-56
2022/04/22 04:17:55;;;;;;;9.67;8.80;;;;;;;10.23;68.19;94656.50;4968963;28;20386;-54
2022/04/22 04:23:17;;;;;;;14.33;12.10;;;;;;;10.31;67.88;94677.59;4969020;28;20235;-64
2022/04/22 04:25:44;;;;;;;12.27;11.07;;;;;;;10.35;68.10;94670.22;4965735;28;20228;-60
2022/04/22 04:28:11;;;;;;;11.87;10.70;;;;;;;10.38;68.31;94675.16;4934089;28;20257;-60
2022/04/22 04:30:37;;;;;;;11.93;10.73;;;;;;;10.38;67.73;94652.31;4949954;28;20715;-60
2022/04/22 04:33:04;;;;;;;12.63;11.13;;;;;;;10.34;68.20;94663.31;4948322;28;20215;-61
2022/04/22 04:35:30;;;;;;;12.10;10.90;;;;;;;10.36;67.80;94653.47;4958245;28;20220;-61
2022/04/22 04:37:55;;;;;;;13.73;12.53;;;;;;;10.41;67.88;94653.81;4956385;28;20226;-60
2022/04/22 04:40:21;;;;;;;13.33;12.17;;;;;;;10.44;67.66;94658.75;4964946;28;20316;-61
2022/04/22 04:42:46;;;;;;;13.50;12.18;;;;;;;10.36;67.89;94646.41;4954082;28;20256;-61
2022/04/22 04:45:12;;;;;;;13.47;12.27;;;;;;;10.38;67.95;94643.63;4955613;28;20261;-61
2022/04/22 04:47:42;;;;;;;15.23;13.82;;;;;;;10.37;67.95;94647.22;4952876;28;20319;-62
2022/04/22 04:50:09;;;;;;;14.90;13.50;;;;;;;10.36;68.39;94654.28;4951731;28;20256;-60
2022/04/22 04:52:37;;;;;;;14.60;13.20;;;;;;;10.38;68.44;94660.22;4960285;28;20237;-61
2022/04/22 04:55:15;;;;;;;14.83;13.43;;;;;;;10.38;67.87;94654.94;4948068;28;20233;-61
2022/04/22 04:57:44;;;;;;;15.10;13.60;;;;;;;10.53;67.31;94649.06;4963532;28;20319;-61
2022/04/22 05:00:10;;;;;;;12.90;11.67;;;;;;;10.62;67.10;94650.75;4952125;28;20208;-61
2022/04/22 05:02:39;;;;;;;13.73;11.37;;;;;;;10.58;66.56;94641.53;4950402;28;20314;-61
2022/04/22 05:05:06;;;;;;;11.57;10.37;;;;;;;10.67;65.70;94650.28;4956177;28;20315;-61
2022/04/22 05:07:32;;;;;;;11.27;10.20;;;;;;;10.67;65.52;94637.13;4930258;28;20288;-61
2022/04/22 05:09:57;;;;;;;11.67;10.57;;;;;;;10.56;65.79;94636.44;4951971;28;20231;-61
2022/04/22 05:12:23;;;;;;;11.90;10.83;;;;;;;10.57;65.84;94624.94;4950137;28;20219;-61
2022/04/22 05:14:48;;;;;;;11.33;10.23;;;;;;;10.54;65.22;94617.38;4943738;28;20329;-62
2022/04/22 05:17:14;;;;;;;11.23;10.13;;;;;;;10.60;65.06;94592.25;4940214;28;20265;-62
2022/04/22 05:19:40;;;;;;;10.87;9.37;;;;;;;10.61;64.64;94612.28;4943042;28;20321;-61
2022/04/22 05:22:05;;;;;;;11.27;10.25;;;;;;;10.64;64.48;94595.34;4940011;28;20257;-61
2022/04/22 05:24:31;;;;;;;10.57;9.57;;;;;;;10.60;64.07;94608.84;4959109;28;20236;-62
2022/04/22 05:26:57;;;;;;;10.20;9.23;;;;;;;10.62;63.79;94597.34;4954944;28;20200;-58
2022/04/22 05:34:51;;;;;;;9.97;9.03;;;;;;;10.59;64.83;94545.91;4938811;28;20279;-58
2022/04/22 05:37:16;;;;;;;11.10;10.10;;;;;;;10.65;64.84;94539.19;4957601;28;20216;-63
2022/04/22 05:39:43;;;;;;;10.90;9.80;;;;;;;10.73;65.09;94515.50;4950003;28;20223;-64
2022/04/22 05:42:09;;;;;;;11.03;9.90;;;;;;;10.89;64.68;94494.44;4970258;28;20235;-64
2022/04/22 05:44:35;;;;;;;11.20;10.10;;;;;;;10.83;65.15;94492.50;4978168;28;20242;-63
2022/04/22 05:47:00;;;;;;;11.17;10.07;;;;;;;10.87;64.61;94482.47;4979996;28;20254;-64
2022/04/22 05:49:27;;;;;;;10.37;9.37;;;;;;;11.00;64.03;94470.44;4974262;28;20223;-64
2022/04/22 05:51:53;;;;;;;11.35;9.38;;;;;;;11.03;64.50;94480.59;4968339;28;20224;-64
2022/04/22 05:54:19;;;;;;;10.77;9.80;;;;;;;11.14;63.21;94461.00;4952692;28;20224;-64
2022/04/22 05:56:44;;;;;;;10.37;9.27;;;;;;;11.13;63.16;94462.00;4956863;28;20269;-64
2022/04/22 05:59:09;;;;;;;10.45;9.45;;;;;;;11.19;63.15;94463.16;4963857;28;20231;-64
2022/04/22 06:01:35;;;;;;;10.70;9.70;;;;;;;11.30;63.04;94470.69;4949597;28;20270;-63
2022/04/22 06:04:00;;;;;;;9.60;8.70;;;;;;;11.21;63.14;94477.78;4963900;28;20221;-64
2022/04/22 06:06:26;;;;;;;11.60;9.33;;;;;;;11.30;62.59;94469.84;4963170;28;20278;-64
2022/04/22 06:11:35;;;;;;;10.87;9.90;;;;;;;11.31;62.20;94469.69;4952947;28;20270;-64
2022/04/22 06:14:01;;;;;;;11.07;10.07;;;;;;;11.27;63.07;94466.56;4952833;28;20253;-65
2022/04/22 06:16:26;;;;;;;10.70;9.73;;;;;;;11.38;62.27;94454.03;4974851;28;20235;-65
2022/04/22 06:18:52;;;;;;;10.67;9.17;;;;;;;11.31;61.75;94445.19;4946680;28;20236;-65
2022/04/22 06:21:18;;;;;;;8.90;8.07;;;;;;;11.32;60.90;94442.38;4955183;28;20232;-66
2022/04/22 06:23:43;;;;;;;9.30;8.40;;;;;;;11.32;59.69;94457.34;4950948;28;20248;-66
2022/04/22 06:26:08;;;;;;;14.67;8.23;;;;;;;11.28;59.84;94454.25;4962344;28;20237;-66
2022/04/22 06:28:34;;;;;;;9.30;8.07;;;;;;;11.32;59.80;94441.56;4956730;28;20232;-64
2022/04/22 06:31:00;;;;;;;8.00;7.30;;;;;;;11.32;59.70;94446.81;4959195;28;20379;-66
2022/04/22 06:33:26;;;;;;;7.77;6.97;;;;;;;11.35;59.51;94444.66;4955359;28;20240;-65
2022/04/22 06:35:52;;;;;;;7.80;7.20;;;;;;;11.43;59.38;94454.34;4962429;28;20271;-65
2022/04/22 06:38:18;;;;;;;8.80;7.57;;;;;;;11.45;59.38;94453.19;4978640;28;20247;-66
2022/04/22 06:46:16;;;;;;;8.37;7.57;;;;;;;11.34;59.54;94448.31;4965271;28;20276;-65
2022/04/22 06:48:43;;;;;;;8.83;7.63;;;;;;;11.40;59.35;94450.25;4971536;28;20283;-64
2022/04/22 06:51:09;;;;;;;8.73;7.50;;;;;;;11.39;59.16;94453.88;4968933;28;20215;-65
2022/04/22 06:53:36;;;;;;;7.40;6.70;;;;;;;11.54;59.17;94455.78;4970840;28;20236;-65
2022/04/22 06:56:04;;;;;;;7.80;7.10;;;;;;;11.59;58.45;94441.09;4966344;28;20228;-64
2022/04/22 06:58:37;;;;;;;8.10;6.97;;;;;;;11.75;58.90;94452.56;4948838;28;20253;-66
2022/04/22 07:01:03;;;;;;;7.33;6.60;;;;;;;11.84;58.50;94440.97;4968730;28;20246;-65
2022/04/22 07:03:29;;;;;;;7.60;6.90;;;;;;;12.00;57.67;94435.66;4954217;28;20228;-65
2022/04/22 07:05:55;;;;;;;7.40;6.70;;;;;;;12.17;57.06;94443.47;4953311;28;20217;-64
2022/04/22 07:08:20;;;;;;;7.85;7.05;;;;;;;12.29;56.25;94442.03;4950185;28;20521;-65
2022/04/22 07:10:48;;;;;;;7.13;6.43;;;;;;;12.33;56.70;94440.69;4951900;28;20314;-65
2022/04/22 07:13:16;;;;;;;9.97;6.93;;;;;;;12.36;56.62;94441.16;4978535;28;20228;-66
2022/04/22 07:15:45;;;;;;;7.57;6.83;;;;;;;12.51;56.25;94443.00;4967598;28;20307;-64
2022/04/22 07:18:11;;;;;;;7.93;6.20;;;;;;;12.55;55.84;94449.59;4957663;28;20216;-65
2022/04/22 07:20:37;;;;;;;7.70;6.73;;;;;;;12.40;55.56;94446.88;4975976;28;20300;-64
2022/04/22 07:23:03;;;;;;;10.47;7.23;;;;;;;12.45;55.75;94455.09;4965923;28;20224;-65
2022/04/22 07:25:29;;;;;;;8.90;6.10;;;;;;;12.49;55.27;94451.13;4976313;28;20319;-65
2022/04/22 07:27:55;;;;;;;10.90;6.17;;;;;;;12.53;55.35;94441.03;4959107;28;20225;-66
2022/04/22 07:30:22;;;;;;;6.77;6.07;;;;;;;12.54;55.32;94430.31;4962433;28;20255;-65
2022/04/22 07:32:49;;;;;;;6.95;6.25;;;;;;;12.54;54.70;94451.41;4975205;28;20590;-65
2022/04/22 07:35:17;;;;;;;6.53;5.93;;;;;;;12.46;55.29;94445.38;4979365;28;20240;-64
2022/04/22 07:37:48;;;;;;;8.33;6.50;;;;;;;12.52;55.08;94434.94;4970189;28;20251;-64
2022/04/22 07:40:15;;;;;;;8.47;5.93;;;;;;;12.49;55.17;94442.41;4958028;28;20228;-65
2022/04/22 07:46:46;;;;;;;7.82;5.63;;;;;;;12.57;55.07;94442.31;4969814;28;20223;-65
2022/04/22 07:48:19;;;;;;;6.38;5.57;;;;;;;12.68;55.18;94417.34;4967675;28;20259;-64
2022/04/22 07:50:48;;;;;;;8.65;6.15;;;;;;;12.78;55.26;94415.25;4973424;28;20204;-64
2022/04/22 07:53:15;;;;;;;8.87;6.37;;;;;;;12.85;55.30;94423.25;4968068;28;20261;-67
2022/04/22 07:55:41;;;;;;;7.63;5.78;;;;;;;12.98;55.11;94434.84;4961732;28;20240;-64
2022/04/22 07:58:10;;;;;;;9.02;6.07;;;;;;;13.12;55.42;94427.09;4964403;28;20231;-64
2022/04/22 08:00:38;;;;;;;8.75;6.35;;;;;;;13.31;54.88;94421.34;4974316;28;20277;-64
2022/04/22 08:03:04;;;;;;;6.97;6.07;;;;;;;13.28;54.53;94423.50;4967957;28;20208;-65
2022/04/22 08:05:29;;;;;;;7.43;6.00;;;;;;;13.16;55.27;94439.78;4973859;28;20303;-64
2022/04/22 08:07:56;;;;;;;9.07;6.30;;;;;;;13.33;55.07;94456.28;4976353;28;20241;-64
2022/04/22 08:10:21;;;;;;;7.00;6.07;;;;;;;13.44;54.96;94449.72;5002564;28;20230;-65
2022/04/22 08:12:47;;;;;;;8.73;5.80;;;;;;;13.60;53.91;94443.41;4979379;28;20232;-64
2022/04/22 08:15:12;;;;;;;8.50;4.97;;;;;;;13.74;53.02;94444.38;4968374;28;20213;-64
2022/04/22 08:17:38;;;;;;;5.63;5.10;;;;;;;13.78;53.94;94448.31;4970005;28;20241;-64
2022/04/22 08:20:07;;;;;;;5.63;4.75;;;;;;;14.07;52.51;94440.31;4971969;28;20224;-65
2022/04/22 08:22:33;;;;;;;5.70;4.75;;;;;;;14.16;52.45;94450.75;4973181;28;20224;-65
2022/04/22 08:24:59;;;;;;;6.63;5.15;;;;;;;14.20;51.64;94428.25;4964208;28;20221;-65
2022/04/22 08:27:28;;;;;;;7.25;5.05;;;;;;;14.34;51.35;94419.41;4956271;28;20236;-64
2022/04/22 08:29:54;;;;;;;5.13;4.63;;;;;;;14.40;51.22;94425.78;4965575;28;20243;-64
2022/04/22 08:32:19;;;;;;;7.70;4.38;;;;;;;14.42;51.71;94424.59;4975025;28;20216;-64
2022/04/22 08:34:46;;;;;;;5.32;4.60;;;;;;;14.53;50.75;94424.09;4973483;28;20224;-65
2022/04/22 08:37:11;;;;;;;6.45;4.80;;;;;;;14.53;50.89;94418.00;4967268;28;20298;-66
2022/04/22 08:39:37;;;;;;;5.82;4.20;;;;;;;14.65;50.41;94416.47;4971191;28;20215;-61
2022/04/22 08:42:03;;;;;;;6.35;4.90;;;;;;;14.74;50.18;94407.38;4971791;28;20215;-63
2022/04/22 08:44:30;;;;;;;6.32;4.50;;;;;;;14.90;49.77;94406.28;4977983;28;20216;-66
2022/04/22 08:49:59;;;;;;;5.90;4.45;;;;;;;15.00;49.43;94398.81;4959639;28;20287;-66
2022/04/22 08:52:31;;;;;;;5.10;4.40;;;;;;;15.18;48.75;94387.72;4965902;28;20249;-65
2022/04/22 08:54:58;;;;;;;6.88;4.07;;;;;;;15.39;48.18;94388.63;4943893;28;20224;-62
2022/04/22 08:57:24;;;;;;;6.18;4.40;;;;;;;15.61;47.23;94386.66;4953025;28;20238;-63
2022/04/22 08:59:50;;;;;;;6.38;4.20;;;;;;;15.82;46.41;94383.94;4982682;28;20234;-63
2022/04/22 09:02:17;;;;;;;7.40;3.55;;;;;;;16.03;45.72;94390.09;4965970;28;20292;-59
2022/04/22 09:04:43;;;;;;;6.20;3.95;;;;;;;16.09;46.23;94368.91;4967552;28;20241;-60
2022/04/22 09:07:13;;;;;;;6.13;4.30;;;;;;;16.47;45.49;94364.88;4947298;28;20238;-63
2022/04/22 09:09:42;;;;;;;6.78;3.83;;;;;;;16.58;45.66;94361.59;4967525;28;20227;-66
2022/04/22 09:12:14;;;;;;;5.70;3.90;;;;;;;16.78;45.51;94353.63;4972484;28;20208;-59
2022/04/22 09:14:47;;;;;;;7.57;4.28;;;;;;;16.72;46.65;94362.41;4958437;28;20250;-60
2022/04/22 09:17:22;;;;;;;6.45;4.50;;;;;;;16.65;46.07;94362.44;4977892;28;20231;-61
2022/04/22 09:19:48;;;;;;;8.75;4.50;;;;;;;16.85;45.36;94353.66;4971825;28;20294;-64
2022/04/22 09:22:34;;;;;;;6.00;4.18;;;;;;;16.86;45.47;94355.28;4953667;28;20815;-67
2022/04/22 09:25:00;;;;;;;5.22;4.30;;;;;;;17.01;45.51;94353.22;4967020;28;20228;-66
2022/04/22 09:27:42;;;;;;;7.10;4.43;;;;;;;17.18;44.40;94359.69;4945299;28;20765;-68
2022/04/22 09:30:10;;;;;;;6.90;4.80;;;;;;;17.23;45.13;94360.91;4980308;28;20235;-65
2022/04/22 09:32:39;;;;;;;7.47;4.13;;;;;;;17.33;44.85;94362.13;4968130;28;20232;-63
2022/04/22 09:35:12;;;;;;;9.55;5.10;;;;;;;17.44;44.44;94352.66;4971085;28;20239;-63
2022/04/22 09:43:39;;;;;;;6.82;4.10;;;;;;;17.66;44.85;94344.41;4963041;28;20259;-63
2022/04/22 09:46:05;;;;;;;5.35;4.20;;;;;;;17.81;44.21;94340.47;4984099;28;20765;-61
2022/04/22 09:48:42;;;;;;;6.55;4.38;;;;;;;17.67;44.18;94332.72;4990640;28;20199;-66
2022/04/22 09:51:20;;;;;;;8.32;4.60;;;;;;;17.93;44.12;94337.94;4970683;28;20241;-62
2022/04/22 09:53:47;;;;;;;8.00;4.57;;;;;;;18.32;43.62;94311.28;4989961;28;20309;-61
2022/04/22 09:56:12;;;;;;;6.50;4.28;;;;;;;18.54;43.16;94319.72;4980922;28;20303;-61
2022/04/22 09:58:38;;;;;;;6.13;4.45;;;;;;;18.58;43.17;94324.41;4968458;28;20291;-66
2022/04/22 10:01:06;;;;;;;6.15;4.28;;;;;;;18.54;42.73;94319.72;4969561;28;20219;-66
2022/04/22 10:03:36;;;;;;;5.07;4.22;;;;;;;18.86;42.80;94299.16;4964895;28;20204;-59
2022/04/22 10:06:03;;;;;;;6.93;4.03;;;;;;;18.85;42.50;94294.88;4965888;28;20248;-59
2022/04/22 10:08:32;;;;;;;6.13;4.10;;;;;;;18.78;42.12;94284.28;4980297;28;20282;-62
2022/04/22 10:11:02;;;;;;;8.65;4.10;;;;;;;18.92;42.61;94280.47;4979456;28;20286;-62
2022/04/22 10:13:39;;;;;;;6.30;4.50;;;;;;;19.03;42.70;94286.06;4975596;28;20227;-62
2022/04/22 10:16:08;;;;;;;4.20;3.80;;;;;;;19.24;39.76;94276.81;4981893;28;20226;-63
2022/04/22 10:18:34;;;;;;;6.43;4.10;;;;;;;19.24;39.13;94271.50;4966986;28;20267;-62
2022/04/22 10:21:01;;;;;;;5.78;3.63;;;;;;;19.24;38.67;94266.97;4970618;28;20442;-62
2022/04/22 10:23:27;;;;;;;7.13;3.72;;;;;;;19.35;38.44;94265.41;4974806;28;20215;-60
2022/04/22 10:25:53;;;;;;;7.13;3.45;;;;;;;19.63;38.82;94267.50;4981969;28;20224;-60
2022/04/22 10:28:20;;;;;;;6.40;4.10;;;;;;;19.80;37.58;94254.38;4995335;28;20231;-60
2022/04/22 10:30:46;;;;;;;4.63;3.63;;;;;;;19.74;37.80;94256.09;4980322;28;20232;-61
2022/04/22 10:33:14;;;;;;;6.30;3.85;;;;;;;19.67;37.77;94236.69;4982496;28;20244;-60
2022/04/22 10:35:45;;;;;;;5.93;4.13;;;;;;;19.88;37.73;94245.22;4973167;28;20255;-60
2022/04/22 10:38:27;;;;;;;6.55;3.60;;;;;;;20.02;40.04;94244.81;4968968;28;20231;-64
2022/04/22 10:40:52;;;;;;;8.75;3.63;;;;;;;20.28;38.28;94246.22;4963913;28;20261;-63
2022/04/22 10:43:18;;;;;;;7.20;3.90;;;;;;;20.33;36.87;94237.53;4963091;28;20228;-67
2022/04/22 10:48:30;;;;;;;5.68;3.42;;;;;;;20.72;36.80;94229.09;4949565;28;20208;-67
2022/04/22 10:51:03;;;;;;;5.32;3.47;;;;;;;20.80;36.29;94226.88;4945492;28;20214;-67
2022/04/22 10:53:40;;;;;;;5.28;3.33;;;;;;;20.85;36.37;94235.00;4946922;28;20221;-65
2022/04/22 10:56:32;;;;;;;5.43;3.58;;;;;;;21.02;36.71;94240.44;4959443;28;20310;-64
2022/04/22 10:59:14;;;;;;;6.28;4.13;;;;;;;21.22;35.61;94247.25;4980903;28;20251;-64
2022/04/22 11:01:40;;;;;;;4.63;3.45;;;;;;;21.35;35.26;94238.97;4982144;28;20284;-64
2022/04/22 11:04:17;;;;;;;4.35;3.42;;;;;;;21.61;35.29;94223.44;4969603;28;20227;-64
2022/04/22 11:06:43;;;;;;;5.72;3.80;;;;;;;21.65;34.57;94220.06;4983997;28;20230;-64
2022/04/22 11:09:09;;;;;;;7.22;4.05;;;;;;;21.63;34.79;94214.13;4973402;28;20439;-64
2022/04/22 11:11:41;;;;;;;6.57;3.50;;;;;;;21.54;35.04;94208.34;4985525;28;20224;-65
2022/04/22 11:14:44;;;;;;;6.78;3.33;;;;;;;21.75;33.80;94206.03;4968507;28;20216;-65
2022/04/22 11:17:36;;;;;;;7.00;3.70;;;;;;;21.96;33.75;94212.53;4934635;29;20233;-65
2022/04/22 11:20:01;;;;;;;6.72;3.67;;;;;;;21.88;33.54;94200.38;4930834;28;20228;-63
2022/04/22 11:22:56;;;;;;;4.97;3.47;;;;;;;22.17;32.93;94203.00;4957572;28;20231;-65
2022/04/22 11:25:25;;;;;;;8.32;3.78;;;;;;;22.46;32.53;94209.09;4917077;29;20256;-65
2022/04/22 11:27:53;;;;;;;5.95;3.40;;;;;;;22.32;32.80;94208.63;4909088;29;20270;-65
2022/04/22 11:30:19;;;;;;;3.90;3.28;;;;;;;22.24;32.49;94207.16;4911359;29;20279;-64
2022/04/22 11:32:48;;;;;;;5.35;3.08;;;;;;;22.23;32.17;94207.41;4910880;29;20253;-64
2022/04/22 11:35:20;;;;;;;5.25;3.28;;;;;;;22.29;32.10;94203.72;4914485;29;20237;-64
2022/04/22 11:38:07;;;;;;;7.90;3.60;;;;;;;22.85;31.38;94179.59;4894048;29;20261;-65
2022/04/22 11:40:39;;;;;;;7.82;3.25;;;;;;;22.80;30.52;94179.53;4904394;29;20333;-65
2022/04/22 11:43:21;;;;;;;7.32;3.65;;;;;;;22.81;31.08;94189.22;4898156;29;20254;-67
2022/04/22 11:45:50;;;;;;;6.75;3.42;;;;;;;22.74;32.21;94170.63;4913833;29;20225;-65
2022/04/22 11:48:23;;;;;;;7.68;3.70;;;;;;;22.95;31.91;94160.19;4913334;29;20226;-64
2022/04/22 11:50:49;;;;;;;6.72;3.53;;;;;;;22.76;31.24;94162.34;4918095;29;20277;-65
2022/04/22 11:53:24;;;;;;;4.32;3.47;;;;;;;22.14;32.38;94168.69;4932858;28;20313;-65
2022/04/22 11:55:50;;;;;;;3.47;3.03;;;;;;;22.83;31.74;94153.06;4935574;29;20237;-64
2022/04/22 11:58:20;;;;;;;6.10;3.25;;;;;;;23.18;31.34;94143.06;4917289;29;20234;-65
2022/04/22 12:06:16;;;;;;;6.35;3.55;;;;;;;23.69;29.28;94143.56;4975021;28;20207;-60
2022/04/22 12:08:53;;;;;;;10.05;3.53;;;;;;;24.05;29.55;94146.56;4958084;28;20205;-60
2022/04/22 12:11:19;;;;;;;7.38;3.45;;;;;;;23.86;30.06;94146.97;4964717;28;20720;-61
2022/04/22 12:13:49;;;;;;;8.60;3.45;;;;;;;24.08;29.57;94154.91;4975278;28;20280;-61
2022/04/22 12:16:18;;;;;;;4.72;3.47;;;;;;;23.95;29.48;94141.94;4981687;28;20630;-59
2022/04/22 12:18:48;;;;;;;5.72;3.50;;;;;;;24.27;28.68;94138.41;4970896;28;20247;-59
2022/04/22 12:21:14;;;;;;;5.30;3.00;;;;;;;24.53;28.23;94134.03;4957404;28;20193;-59
2022/04/22 12:23:42;;;;;;;4.75;3.55;;;;;;;24.55;27.58;94121.16;4966140;28;20259;-63
2022/04/22 12:26:22;;;;;;;4.90;3.53;;;;;;;24.31;29.21;94128.78;4979487;28;20263;-61
2022/04/22 12:29:11;;;;;;;4.70;3.30;;;;;;;24.67;28.23;94121.75;4989681;28;20219;-62
2022/04/22 12:31:42;;;;;;;5.25;3.60;;;;;;;24.80;28.14;94094.38;4975613;28;20224;-62